Elk, CA (95432)

9:38 AM PDT on October 02, 2014 (GMT -0700)
Little River | Change Station
CLOSE
Current Station
Personal Weather Station
Location: Little River, CA
Elevation: 600 ft
Nearby Weather Stations

Elev 600 ft 39.26 °N, 123.72 °W | Updated 3 minutes ago

Clear
Clear
60.4 °F
Feels Like 60.4 °F
N
0.0
Wind Variable Wind from WNW
Gusts 0.0 mph

Today
High -- | Low -- °F
--% Chance of Precip.
Yesterday
High -- | Low -- °F
Precip. -- in
7:11 AM 6:55 PM
First Quarter, 60% visible
Pressure 30.06 in
Visibility 10.0 miles
Clouds Clear
Dew Point 49 °F
Humidity 67%
Rainfall 0.00 in
Snow Depth 0 in , 0 in , 0 in
UV 1 out of 12
Pollen 4.10 out of 12
Air Quality Not available.
Flu Activity Not available.
METAR KUKI 021556Z AUTO 00000KT 10SM CLR 13/06 A3008 RMK AO2 SLP180 T01330061

More Conditions Fewer Conditions

Pressure 30.06 in
Visibility 10.0 miles
Clouds Clear
Dew Point 49 °F
Humidity 67%
Rainfall 0.00 in
Snow Depth 0 in , 0 in , 0 in
UV 1 out of 12
Pollen 4.10 out of 12
Air Quality Not available.
Flu Activity Not available.
METAR KUKI 021556Z AUTO 00000KT 10SM CLR 13/06 A3008 RMK AO2 SLP180 T01330061

More Conditions Fewer Conditions

10-Day Weather Forecast

Almanac

Astronomy

Oct. 02, 2014 Rise Set
Actual Time 7:11 AM PDT 6:55 PM PDT
Civil Twilight 6:45 AM PDT 7:22 PM PDT
Nautical Twilight 6:14 AM PDT 7:53 PM PDT
Astronomical Twilight 5:42 AM PDT 8:24 PM PDT
Moon 3:04 PM PDT 12:37 AM PDT
Length of Visible Light 12h 37m
Length of Day
11h 43m
Tomorrow will be 2m 32s shorter.
First Quarter, 60% of the Moon is Illuminated
Today
First Quarter
Oct 8
Full
Oct 15
Last Quarter
Oct 23
New
Oct 30
First Quarter

Today's Extremes

State Highs State Lows

Community

WunderPhotos

Upload Photos

1,758,294 photos uploaded!

WunderBlogs® & News

Nearby

Snow Depth

Station Depth Elevation
Ebbetts Pass 0 in 8700 ft
Monitor Pass 0 in 8350 ft
Adin Mountain 0 in 6200 ft
Hagan's Meadow 1 in 8000 ft
Heavenly Valley 0 in 8850 ft

Earthquake Activity

City Distance Mag. Time & Date
Hayfork, California 77 miles 2.5 11:28 PM PDT
2014-09-30
East Foothills, California 156 miles 2.6 3:34 PM PDT
2014-09-30
Minimum magnitude displayed is 2.5.

Coastal Water Temperatures

Place Temperature
Arena Cove, CA 53.1 °F
North Spit, CA 55.0 °F
Point Reyes, CA 57.9 °F
San Francisco, CA 64.0 °F
Richmond, CA 66.9 °F

Nearby Weather Stations